createdAt,value
2018-02-25T00:00:28.318Z,3.13
2018-02-25T00:02:56.158Z,3.17
2018-02-25T00:05:23.813Z,3.30
2018-02-25T00:07:52.347Z,3.47
2018-02-25T00:10:19.930Z,3.40
2018-02-25T00:12:47.497Z,3.37
2018-02-25T00:15:15.070Z,3.13
2018-02-25T00:17:42.630Z,3.20
2018-02-25T00:20:10.221Z,3.07
2018-02-25T00:22:38.546Z,2.80
2018-02-25T00:25:06.102Z,3.43
2018-02-25T00:27:33.699Z,2.90
2018-02-25T00:30:01.267Z,3.23
2018-02-25T00:32:28.923Z,2.90
2018-02-25T00:34:56.487Z,3.20
2018-02-25T00:37:24.061Z,3.03
2018-02-25T00:39:51.620Z,2.90
2018-02-25T00:42:19.193Z,2.97
2018-02-25T00:44:46.776Z,2.80
2018-02-25T00:47:14.352Z,3.40
2018-02-25T00:49:41.903Z,3.00
2018-02-25T00:52:09.479Z,3.00
2018-02-25T00:54:37.182Z,3.00
2018-02-25T00:57:04.763Z,2.73
2018-02-25T00:59:32.326Z,3.20
2018-02-25T01:01:59.886Z,2.80
2018-02-25T01:04:27.461Z,2.77
2018-02-25T01:06:55.013Z,2.90
2018-02-25T01:09:22.585Z,2.87
2018-02-25T01:11:50.149Z,2.77
2018-02-25T01:14:17.712Z,3.30
2018-02-25T01:16:45.296Z,2.50
2018-02-25T01:19:12.871Z,2.77
2018-02-25T01:21:40.460Z,2.77
2018-02-25T01:24:08.066Z,2.70
2018-02-25T01:26:35.627Z,2.70
2018-02-25T01:29:03.956Z,2.57
2018-02-25T01:31:31.511Z,3.00
2018-02-25T01:33:59.110Z,3.10
2018-02-25T01:36:26.672Z,2.87
2018-02-25T01:38:54.230Z,2.60
2018-02-25T01:41:21.804Z,2.57
2018-02-25T01:43:49.374Z,2.80
2018-02-25T01:46:17.074Z,2.90
2018-02-25T01:48:45.409Z,2.67
2018-02-25T01:51:12.961Z,2.73
2018-02-25T01:53:40.523Z,2.50
2018-02-25T01:56:08.081Z,2.60
2018-02-25T01:58:35.661Z,2.40
2018-02-25T02:01:03.228Z,2.50
2018-02-25T02:03:30.800Z,2.40
2018-02-25T02:05:58.431Z,2.83
2018-02-25T02:08:26.047Z,2.67
2018-02-25T02:10:53.651Z,2.30
2018-02-25T02:13:21.957Z,2.50
2018-02-25T02:15:49.533Z,2.37
2018-02-25T02:18:17.196Z,2.40
2018-02-25T02:20:44.755Z,2.50
2018-02-25T02:23:12.346Z,2.47
2018-02-25T02:25:39.903Z,2.90
2018-02-25T02:28:07.611Z,2.70
2018-02-25T02:30:35.180Z,2.47
2018-02-25T02:33:03.539Z,2.70
2018-02-25T02:35:31.143Z,2.30
2018-02-25T02:37:59.468Z,2.67
2018-02-25T02:40:27.051Z,2.30
2018-02-25T02:42:54.615Z,2.50
2018-02-25T02:45:22.222Z,2.27
2018-02-25T02:47:50.660Z,2.67
2018-02-25T02:50:18.349Z,2.63
2018-02-25T02:52:45.932Z,2.50
2018-02-25T02:55:13.488Z,2.57
2018-02-25T02:57:41.256Z,2.77
2018-02-25T03:00:08.864Z,2.53
2018-02-25T03:02:36.685Z,2.80
2018-02-25T03:05:04.331Z,2.40
2018-02-25T03:07:31.890Z,2.77
2018-02-25T03:09:59.672Z,2.60
2018-02-25T03:12:27.245Z,2.50
2018-02-25T03:14:54.805Z,2.80
2018-02-25T03:17:22.369Z,2.63
2018-02-25T03:19:49.925Z,2.80
2018-02-25T03:22:17.640Z,2.90
2018-02-25T03:24:45.418Z,2.43
2018-02-25T03:27:13.752Z,2.43
2018-02-25T03:29:41.317Z,2.70
2018-02-25T03:32:08.881Z,2.80
2018-02-25T03:34:36.433Z,2.70
2018-02-25T03:37:04.036Z,2.80
2018-02-25T03:39:31.603Z,3.03
2018-02-25T03:41:59.163Z,2.70
2018-02-25T03:44:26.735Z,2.80
2018-02-25T03:46:54.386Z,2.90
2018-02-25T03:49:21.953Z,3.00
2018-02-25T03:51:49.527Z,2.50
2018-02-25T03:54:17.177Z,2.80
2018-02-25T03:56:44.769Z,3.23
2018-02-25T03:59:12.343Z,2.93
2018-02-25T04:01:40.074Z,3.00
2018-02-25T04:04:07.636Z,2.63
2018-02-25T04:06:35.209Z,2.60
2018-02-25T04:09:02.768Z,2.87
2018-02-25T04:11:30.350Z,2.90
2018-02-25T04:13:57.959Z,2.67
2018-02-25T04:16:26.282Z,2.77
2018-02-25T04:18:53.842Z,3.00
2018-02-25T04:21:21.497Z,3.20
2018-02-25T04:23:49.062Z,3.10
2018-02-25T04:26:16.658Z,2.70
2018-02-25T04:28:44.215Z,2.80
2018-02-25T04:31:11.769Z,2.90
2018-02-25T04:33:39.393Z,2.77
2018-02-25T04:36:06.958Z,3.10
2018-02-25T04:38:34.520Z,3.10
2018-02-25T04:41:02.087Z,2.70
2018-02-25T04:43:29.644Z,2.73
2018-02-25T04:45:57.204Z,3.37
2018-02-25T04:48:24.786Z,3.20
2018-02-25T04:50:52.377Z,2.67
2018-02-25T04:53:19.929Z,3.03
2018-02-25T04:55:48.252Z,3.30
2018-02-25T04:58:15.830Z,3.13
2018-02-25T05:00:43.518Z,3.20
2018-02-25T05:03:11.877Z,3.27
2018-02-25T05:05:39.571Z,3.43
2018-02-25T05:08:07.138Z,2.97
2018-02-25T05:10:34.705Z,2.80
2018-02-25T05:13:02.263Z,2.80
2018-02-25T05:15:29.853Z,3.00
2018-02-25T05:17:57.768Z,3.00
2018-02-25T05:20:25.330Z,3.20
2018-02-25T05:22:53.090Z,3.17
2018-02-25T05:25:20.666Z,3.30
2018-02-25T05:27:48.238Z,3.33
2018-02-25T05:30:15.801Z,2.90
2018-02-25T05:32:43.360Z,2.97
2018-02-25T05:35:10.923Z,3.30
2018-02-25T05:37:38.508Z,3.13
2018-02-25T05:40:06.088Z,2.97
2018-02-25T05:42:33.738Z,3.10
2018-02-25T05:45:01.301Z,3.40
2018-02-25T05:47:28.868Z,3.03
2018-02-25T05:49:56.428Z,3.07
2018-02-25T05:52:24.011Z,2.97
2018-02-25T05:54:51.588Z,3.03
2018-02-25T05:57:19.269Z,3.30
2018-02-25T05:59:46.851Z,2.80
2018-02-25T06:02:15.196Z,2.90
2018-02-25T06:04:42.841Z,2.80
2018-02-25T06:07:10.612Z,3.40
2018-02-25T06:09:38.161Z,3.00
2018-02-25T06:12:05.754Z,3.23
2018-02-25T06:14:33.330Z,3.00
2018-02-25T06:17:00.920Z,3.40
2018-02-25T06:19:28.565Z,3.57
2018-02-25T06:21:56.135Z,3.30
2018-02-25T06:24:23.694Z,3.60
2018-02-25T06:26:51.258Z,3.60
2018-02-25T06:29:18.962Z,3.33
2018-02-25T06:31:46.529Z,3.67
2018-02-25T06:34:14.089Z,3.47
2018-02-25T06:36:43.167Z,3.77
2018-02-25T06:39:10.742Z,3.70
2018-02-25T06:41:38.325Z,3.83
2018-02-25T06:44:05.895Z,3.50
2018-02-25T06:46:33.446Z,3.73
2018-02-25T06:49:01.175Z,3.50
2018-02-25T06:51:28.755Z,3.57
2018-02-25T06:53:56.701Z,3.90
2018-02-25T06:56:24.282Z,3.53
2018-02-25T06:58:52.142Z,3.30
2018-02-25T07:01:19.704Z,3.70
2018-02-25T07:03:47.258Z,3.47
2018-02-25T07:06:15.597Z,3.67
2018-02-25T07:08:43.158Z,4.10
2018-02-25T07:11:10.738Z,4.00
2018-02-25T07:13:38.315Z,3.70
2018-02-25T07:16:05.876Z,4.20
2018-02-25T07:18:33.482Z,3.83
2018-02-25T07:21:01.048Z,3.73
2018-02-25T07:23:28.714Z,4.17
2018-02-25T07:25:56.288Z,4.03
2018-02-25T07:28:23.855Z,4.00
2018-02-25T07:30:51.410Z,3.80
2018-02-25T07:33:18.993Z,4.37
2018-02-25T07:35:46.553Z,3.83
2018-02-25T07:38:14.183Z,4.20
2018-02-25T07:40:42.509Z,3.83
2018-02-25T07:43:10.089Z,4.07
2018-02-25T07:45:37.695Z,4.30
2018-02-25T07:48:05.237Z,4.03
2018-02-25T07:50:33.013Z,4.27
2018-02-25T07:53:00.739Z,4.03
2018-02-25T07:55:28.315Z,4.40
2018-02-25T07:57:55.886Z,4.03
2018-02-25T08:00:23.464Z,4.40
2018-02-25T08:02:51.109Z,4.47
2018-02-25T08:05:18.664Z,4.70
2018-02-25T08:07:46.438Z,4.57
2018-02-25T08:10:14.014Z,4.70
2018-02-25T08:12:41.576Z,4.80
2018-02-25T08:15:09.133Z,5.13
2018-02-25T08:17:36.698Z,5.00
2018-02-25T08:20:04.279Z,4.80
2018-02-25T08:22:31.883Z,4.97
2018-02-25T08:24:59.445Z,5.30
2018-02-25T08:27:27.014Z,6.23
2018-02-25T08:29:54.738Z,5.40
2018-02-25T08:32:22.330Z,5.50
2018-02-25T08:34:49.911Z,5.23
2018-02-25T08:37:17.539Z,5.07
2018-02-25T08:39:45.104Z,5.20
2018-02-25T08:42:12.688Z,5.73
2018-02-25T08:44:40.335Z,5.60
2018-02-25T08:47:07.913Z,5.47
2018-02-25T08:49:35.487Z,5.57
2018-02-25T08:52:03.059Z,5.73
2018-02-25T08:54:30.621Z,5.83
2018-02-25T08:56:58.270Z,5.67
2018-02-25T08:59:25.861Z,5.40
2018-02-25T09:01:53.432Z,5.40
2018-02-25T09:04:21.003Z,5.90
2018-02-25T09:06:48.596Z,5.67
2018-02-25T09:09:16.241Z,5.50
2018-02-25T09:11:43.809Z,5.83
2018-02-25T09:14:11.378Z,6.10
2018-02-25T09:16:38.996Z,5.67
2018-02-25T09:19:06.571Z,5.30
2018-02-25T09:21:34.170Z,5.83
2018-02-25T09:24:01.791Z,5.60
2018-02-25T09:26:29.342Z,5.53
2018-02-25T09:28:56.924Z,5.60
2018-02-25T09:31:24.514Z,6.20
2018-02-25T09:33:52.201Z,5.63
2018-02-25T09:36:19.842Z,5.97
2018-02-25T09:38:47.415Z,5.47
2018-02-25T09:41:14.997Z,5.77
2018-02-25T09:43:42.582Z,5.27
2018-02-25T09:46:10.250Z,5.60
2018-02-25T09:48:37.830Z,5.50
2018-02-25T09:51:05.399Z,5.63
2018-02-25T09:53:33.722Z,5.50
2018-02-25T09:56:01.285Z,6.13
2018-02-25T09:58:28.885Z,5.40
2018-02-25T10:00:56.508Z,5.70
2018-02-25T10:03:24.068Z,5.80
2018-02-25T10:05:51.699Z,10.57
2018-02-25T10:08:20.101Z,12.90
2018-02-25T10:10:48.468Z,11.70
2018-02-25T10:13:16.048Z,12.57
2018-02-25T10:15:44.411Z,11.93
2018-02-25T10:18:12.028Z,10.67
2018-02-25T10:20:39.595Z,10.80
2018-02-25T10:23:07.186Z,10.60
2018-02-25T10:25:34.760Z,9.50
2018-02-25T10:28:02.346Z,9.73
2018-02-25T10:30:30.000Z,9.07
2018-02-25T10:32:57.706Z,9.60
2018-02-25T10:35:25.309Z,8.90
2018-02-25T10:37:52.881Z,8.53
2018-02-25T10:40:20.491Z,8.23
2018-02-25T10:42:48.051Z,8.03
2018-02-25T10:45:15.618Z,7.77
2018-02-25T10:47:43.232Z,7.40
2018-02-25T10:50:10.815Z,8.00
2018-02-25T10:52:38.389Z,7.10
2018-02-25T10:55:06.107Z,7.10
2018-02-25T10:57:34.442Z,7.43
2018-02-25T11:00:02.048Z,7.43
2018-02-25T11:02:30.393Z,6.60
2018-02-25T11:04:57.993Z,6.73
2018-02-25T11:07:26.387Z,6.87
2018-02-25T11:09:53.922Z,7.00
2018-02-25T11:12:21.513Z,6.77
2018-02-25T11:14:49.848Z,7.10
2018-02-25T11:17:17.407Z,6.50
2018-02-25T11:19:45.000Z,6.37
2018-02-25T11:22:12.569Z,6.00
2018-02-25T11:24:40.257Z,7.23
2018-02-25T11:27:08.605Z,7.00
2018-02-25T11:29:36.195Z,7.67
2018-02-25T11:32:04.558Z,6.63
2018-02-25T11:34:32.140Z,6.50
2018-02-25T11:36:59.739Z,6.70
2018-02-25T11:39:28.337Z,6.80
2018-02-25T11:41:55.907Z,6.90
2018-02-25T11:44:23.494Z,6.37
2018-02-25T11:46:51.059Z,6.93
2018-02-25T11:49:18.729Z,6.47
2018-02-25T11:51:46.290Z,6.80
2018-02-25T11:54:13.873Z,6.33
2018-02-25T11:56:41.432Z,6.27
2018-02-25T11:59:09.007Z,6.63
2018-02-25T12:01:36.930Z,6.60
2018-02-25T12:04:04.524Z,6.30
2018-02-25T12:06:32.101Z,6.77
2018-02-25T12:08:59.671Z,6.00
2018-02-25T12:11:27.255Z,6.17
2018-02-25T12:13:54.853Z,6.20
2018-02-25T12:16:22.436Z,6.10
2018-02-25T12:18:50.019Z,6.00
2018-02-25T12:21:17.573Z,5.70
2018-02-25T12:23:45.159Z,6.37
2018-02-25T12:26:12.772Z,5.93
2018-02-25T12:28:41.114Z,5.87
2018-02-25T12:31:08.675Z,6.20
2018-02-25T12:33:36.262Z,5.57
2018-02-25T12:36:03.834Z,5.90
2018-02-25T12:38:31.469Z,9.90
2018-02-25T12:40:59.056Z,14.40
2018-02-25T12:43:26.647Z,17.93
2018-02-25T12:45:54.989Z,16.93
2018-02-25T12:48:22.643Z,16.03
2018-02-25T12:50:50.278Z,14.53
2018-02-25T12:53:18.698Z,15.00
2018-02-25T12:55:46.269Z,12.83
2018-02-25T12:58:13.843Z,12.07
2018-02-25T13:00:41.432Z,11.43
2018-02-25T13:03:09.027Z,10.93
2018-02-25T13:05:37.373Z,10.33
2018-02-25T13:08:04.965Z,10.90
2018-02-25T13:10:32.590Z,10.27
2018-02-25T13:13:00.192Z,9.83
2018-02-25T13:15:27.805Z,8.97
2018-02-25T13:17:55.363Z,9.77
2018-02-25T13:20:23.030Z,8.90
2018-02-25T13:22:50.603Z,8.77
2018-02-25T13:25:18.174Z,8.70
2018-02-25T13:27:45.762Z,8.37
2018-02-25T13:30:13.355Z,7.93
2018-02-25T13:32:40.923Z,9.17
2018-02-25T13:35:08.506Z,10.27
2018-02-25T13:37:36.867Z,11.70
2018-02-25T13:40:04.504Z,10.23
2018-02-25T13:42:32.107Z,12.30
2018-02-25T13:45:00.581Z,12.53
2018-02-25T13:47:28.151Z,13.00
2018-02-25T13:49:55.840Z,12.57
2018-02-25T13:52:24.219Z,13.03
2018-02-25T13:54:51.796Z,13.17
2018-02-25T13:57:20.192Z,12.13
2018-02-25T13:59:47.851Z,12.33
2018-02-25T14:02:15.379Z,10.67
2018-02-25T14:04:42.980Z,11.17
2018-02-25T14:07:11.347Z,11.67
2018-02-25T14:09:38.928Z,10.33
2018-02-25T14:12:07.310Z,11.00
2018-02-25T14:14:34.904Z,11.38
2018-02-25T14:17:02.495Z,10.77
2018-02-25T14:19:30.897Z,11.33
2018-02-25T14:21:58.493Z,13.00
2018-02-25T14:24:26.900Z,14.77
2018-02-25T14:26:55.232Z,16.70
2018-02-25T14:29:22.818Z,18.93
2018-02-25T14:31:51.149Z,17.30
2018-02-25T14:34:18.716Z,18.00
2018-02-25T14:36:46.309Z,19.07
2018-02-25T14:39:13.887Z,37.33
2018-02-25T14:41:41.496Z,55.97
2018-02-25T14:44:09.134Z,49.90
2018-02-25T14:46:37.487Z,45.37
2018-02-25T14:49:05.081Z,35.63
2018-02-25T14:51:33.433Z,28.03
2018-02-25T14:54:01.074Z,29.63
2018-02-25T14:56:28.673Z,23.83
2018-02-25T14:58:56.238Z,20.43
2018-02-25T15:01:23.855Z,18.40
2018-02-25T15:03:51.454Z,16.77
2018-02-25T15:06:19.398Z,16.60
2018-02-25T15:08:46.982Z,15.20
2018-02-25T15:11:14.572Z,15.00
2018-02-25T15:13:42.135Z,13.23
2018-02-25T15:16:09.824Z,13.13
2018-02-25T15:18:37.424Z,11.57
2018-02-25T15:21:05.023Z,11.60
2018-02-25T15:23:32.764Z,10.47
2018-02-25T15:26:00.414Z,10.60
2018-02-25T15:28:28.771Z,10.13
2018-02-25T15:30:56.377Z,11.43
2018-02-25T15:33:23.955Z,10.63
2018-02-25T15:35:52.503Z,9.13
2018-02-25T15:38:20.142Z,9.50
2018-02-25T15:40:48.554Z,9.03
2018-02-25T15:43:16.262Z,9.33
2018-02-25T15:45:43.852Z,9.37
2018-02-25T15:48:11.417Z,8.47
2018-02-25T15:50:39.058Z,9.03
2018-02-25T15:53:06.633Z,18.20
2018-02-25T15:55:34.237Z,7.47
2018-02-25T15:58:01.970Z,8.43
2018-02-25T16:00:29.587Z,8.40
2018-02-25T16:02:57.171Z,8.03
2018-02-25T16:05:24.748Z,7.13
2018-02-25T16:07:53.106Z,7.47
2018-02-25T16:10:20.707Z,7.07
2018-02-25T16:12:48.293Z,7.40
2018-02-25T16:15:15.880Z,6.93
2018-02-25T16:17:43.542Z,6.87
2018-02-25T16:20:11.146Z,7.07
2018-02-25T16:22:38.787Z,6.40
2018-02-25T16:25:06.374Z,6.40
2018-02-25T16:27:33.940Z,6.20
2018-02-25T16:30:01.522Z,6.20
2018-02-25T16:32:29.879Z,5.93
2018-02-25T16:34:57.457Z,5.77
2018-02-25T16:37:25.024Z,5.80
2018-02-25T16:39:52.650Z,5.67
2018-02-25T16:42:20.951Z,5.37
2018-02-25T16:44:48.548Z,5.50
2018-02-25T16:47:16.910Z,5.47
2018-02-25T16:49:44.483Z,5.53
2018-02-25T16:52:12.089Z,5.23
2018-02-25T16:54:39.743Z,5.20
2018-02-25T16:57:07.337Z,5.47
2018-02-25T16:59:34.925Z,5.03
2018-02-25T17:02:02.524Z,5.20
2018-02-25T17:04:30.102Z,5.47
2018-02-25T17:06:58.606Z,5.00
2018-02-25T17:09:26.273Z,4.90
2018-02-25T17:11:53.851Z,4.93
2018-02-25T17:14:21.391Z,5.20
2018-02-25T17:16:49.930Z,4.90
2018-02-25T17:19:17.490Z,5.07
2018-02-25T17:21:45.182Z,4.93
2018-02-25T17:24:12.828Z,4.70
2018-02-25T17:26:40.421Z,4.40
2018-02-25T17:29:08.030Z,4.47
2018-02-25T17:31:35.604Z,4.40
2018-02-25T17:34:03.225Z,4.87
2018-02-25T17:36:30.804Z,4.50
2018-02-25T17:38:59.131Z,4.33
2018-02-25T17:41:26.726Z,4.53
2018-02-25T17:43:54.305Z,4.70
2018-02-25T17:46:21.879Z,4.50
2018-02-25T17:48:50.236Z,4.20
2018-02-25T17:51:17.790Z,4.10
2018-02-25T17:53:45.372Z,4.40
2018-02-25T17:56:12.953Z,6.50
2018-02-25T17:58:40.980Z,20.57
2018-02-25T18:01:08.605Z,4.83
2018-02-25T18:03:36.186Z,4.80
2018-02-25T18:06:04.502Z,4.67
2018-02-25T18:08:32.182Z,4.43
2018-02-25T18:11:00.566Z,4.77
2018-02-25T18:13:28.133Z,4.13
2018-02-25T18:15:55.715Z,4.13
2018-02-25T18:18:23.309Z,3.80
2018-02-25T18:20:51.672Z,4.37
2018-02-25T18:23:19.302Z,4.13
2018-02-25T18:25:46.895Z,4.17
2018-02-25T18:28:14.542Z,4.70
2018-02-25T18:30:42.116Z,4.00
2018-02-25T18:33:09.724Z,4.33
2018-02-25T18:35:37.376Z,4.40
2018-02-25T18:38:05.798Z,3.97
2018-02-25T18:40:33.534Z,3.97
2018-02-25T18:43:01.148Z,3.97
2018-02-25T18:45:28.760Z,4.17
2018-02-25T18:47:56.374Z,3.93
2018-02-25T18:50:24.202Z,4.13
2018-02-25T18:52:51.831Z,3.87
2018-02-25T18:55:19.437Z,3.43
2018-02-25T18:57:48.579Z,3.53
2018-02-25T19:00:16.218Z,20.57
2018-02-25T19:02:44.591Z,19.13
2018-02-25T19:05:12.207Z,16.20
2018-02-25T19:07:39.771Z,9.60
2018-02-25T19:10:07.388Z,17.60
2018-02-25T19:12:35.205Z,9.60
2018-02-25T19:15:02.794Z,11.77
2018-02-25T19:17:30.379Z,11.40
2018-02-25T19:19:58.028Z,10.53
2018-02-25T19:22:25.631Z,10.37
2018-02-25T19:24:53.409Z,10.27
2018-02-25T19:27:20.988Z,10.17
2018-02-25T19:29:49.394Z,8.77
2018-02-25T19:32:17.060Z,9.10
2018-02-25T19:34:44.755Z,8.27
2018-02-25T19:37:18.097Z,8.23
2018-02-25T19:40:06.592Z,8.37
2018-02-25T19:42:34.303Z,7.57
2018-02-25T19:45:01.976Z,6.37
2018-02-25T19:47:30.647Z,6.97
2018-02-25T19:49:58.416Z,6.00
2018-02-25T19:52:26.153Z,6.70
2018-02-25T19:54:54.046Z,6.13
2018-02-25T19:57:21.775Z,6.33
2018-02-25T19:59:49.574Z,5.67
2018-02-25T20:02:17.447Z,5.77
2018-02-25T20:04:45.322Z,5.50
2018-02-25T20:07:13.002Z,5.70
2018-02-25T20:09:40.660Z,6.17
2018-02-25T20:12:08.363Z,5.10
2018-02-25T20:14:36.923Z,4.97
2018-02-25T20:17:05.314Z,5.07
2018-02-25T20:19:33.104Z,5.13
2018-02-25T20:22:00.731Z,5.00
2018-02-25T20:24:28.728Z,4.93
2018-02-25T20:26:56.375Z,4.77
2018-02-25T20:29:23.983Z,4.87
2018-02-25T20:31:51.667Z,4.73
2018-02-25T20:34:20.085Z,5.00
2018-02-25T20:36:47.732Z,5.00
2018-02-25T20:39:16.111Z,4.93
2018-02-25T20:41:44.593Z,6.67
2018-02-25T20:44:13.004Z,5.30
2018-02-25T20:46:40.651Z,5.40
2018-02-25T20:49:10.193Z,4.73
2018-02-25T20:51:38.683Z,4.47
2018-02-25T20:54:06.299Z,4.10
2018-02-25T20:56:35.436Z,4.87
2018-02-25T20:59:03.024Z,4.33
2018-02-25T21:01:30.669Z,4.27
2018-02-25T21:03:58.279Z,4.37
2018-02-25T21:06:25.859Z,4.43
2018-02-25T21:08:53.576Z,4.47
2018-02-25T21:11:21.163Z,4.13
2018-02-25T21:13:48.769Z,4.13
2018-02-25T21:16:17.110Z,3.87
2018-02-25T21:18:44.681Z,4.27
2018-02-25T21:21:12.263Z,3.90
2018-02-25T21:23:39.878Z,3.90
2018-02-25T21:26:07.475Z,3.77
2018-02-25T21:28:35.177Z,3.70
2018-02-25T21:31:02.752Z,3.80
2018-02-25T21:33:31.097Z,3.80
2018-02-25T21:35:58.731Z,4.10
2018-02-25T21:38:26.563Z,3.60
2018-02-25T21:40:54.138Z,3.63
2018-02-25T21:43:22.468Z,3.40
2018-02-25T21:45:50.041Z,4.20
2018-02-25T21:48:17.640Z,3.30
2018-02-25T21:50:45.211Z,3.80
2018-02-25T21:53:14.298Z,3.50
2018-02-25T21:55:56.950Z,3.43
2018-02-25T21:58:30.078Z,3.47
2018-02-25T22:01:03.199Z,3.43
2018-02-25T22:03:36.623Z,3.40
2018-02-25T22:06:04.980Z,3.03
2018-02-25T22:08:32.571Z,3.43
2018-02-25T22:11:00.969Z,3.10
2018-02-25T22:13:28.530Z,3.60
2018-02-25T22:15:56.105Z,3.07
2018-02-25T22:18:23.689Z,3.37
2018-02-25T22:20:51.255Z,3.00
2018-02-25T22:23:18.824Z,2.90
2018-02-25T22:25:46.403Z,2.90
2018-02-25T22:28:13.962Z,2.97
2018-02-25T22:30:41.563Z,2.97
2018-02-25T22:33:09.113Z,3.10
2018-02-25T22:35:36.674Z,2.93
2018-02-25T22:38:04.237Z,3.10
2018-02-25T22:40:31.819Z,3.17
2018-02-25T22:43:00.186Z,2.83
2018-02-25T22:45:27.771Z,3.00
2018-02-25T22:47:55.349Z,2.90
2018-02-25T22:50:22.911Z,3.00
2018-02-25T22:52:50.466Z,3.30
2018-02-25T22:55:18.060Z,2.63
2018-02-25T22:57:46.390Z,3.00
2018-02-25T23:00:20.164Z,2.80
2018-02-25T23:02:47.733Z,3.00
2018-02-25T23:05:15.299Z,2.63
2018-02-25T23:07:42.896Z,2.70
2018-02-25T23:10:10.463Z,2.57
2018-02-25T23:12:38.050Z,3.00
2018-02-25T23:15:05.696Z,2.80
2018-02-25T23:17:33.251Z,2.80
2018-02-25T23:20:00.838Z,2.70
2018-02-25T23:22:28.424Z,2.70
2018-02-25T23:24:56.019Z,2.80
2018-02-25T23:27:23.608Z,3.20
2018-02-25T23:29:51.198Z,2.80
2018-02-25T23:32:18.751Z,3.03
2018-02-25T23:34:46.498Z,2.83
2018-02-25T23:37:14.113Z,3.00
2018-02-25T23:39:42.444Z,2.67
2018-02-25T23:42:10.008Z,2.83
2018-02-25T23:44:37.575Z,2.77
2018-02-25T23:47:05.138Z,3.00
2018-02-25T23:49:32.740Z,2.70
2018-02-25T23:52:00.305Z,2.87
2018-02-25T23:54:28.027Z,2.67
2018-02-25T23:56:56.356Z,2.60
2018-02-25T23:59:23.910Z,2.67
